createdAt,value
2017-12-02T00:01:04.802Z,1.00
2017-12-02T00:03:33.770Z,0.90
2017-12-02T00:06:04.074Z,0.90
2017-12-02T00:08:33.091Z,0.80
2017-12-02T00:11:02.933Z,0.90
2017-12-02T00:13:32.728Z,1.00
2017-12-02T00:16:02.722Z,1.00
2017-12-02T00:18:34.120Z,1.00
2017-12-02T00:21:03.174Z,0.90
2017-12-02T00:23:32.957Z,0.90
2017-12-02T00:26:01.943Z,0.90
2017-12-02T00:28:31.016Z,0.90
2017-12-02T00:31:00.078Z,0.90
2017-12-02T00:33:29.914Z,0.80
2017-12-02T00:35:58.887Z,0.80
2017-12-02T00:38:28.737Z,0.70
2017-12-02T00:40:57.686Z,0.60
2017-12-02T00:43:27.722Z,0.70
2017-12-02T00:45:57.517Z,0.70
2017-12-02T00:48:27.593Z,0.80
2017-12-02T00:50:56.667Z,0.70
2017-12-02T00:53:25.753Z,0.80
2017-12-02T00:55:54.720Z,0.90
2017-12-02T00:58:25.589Z,0.90
2017-12-02T01:00:55.549Z,0.80
2017-12-02T01:03:25.265Z,0.90
2017-12-02T01:05:55.093Z,0.90
2017-12-02T01:08:24.753Z,0.90
2017-12-02T01:10:53.743Z,0.90
2017-12-02T01:13:25.849Z,1.10
2017-12-02T01:15:55.562Z,1.00
2017-12-02T01:18:25.551Z,1.00
2017-12-02T01:20:54.786Z,0.90
2017-12-02T01:23:24.822Z,0.90
2017-12-02T01:25:54.700Z,0.90
2017-12-02T01:28:24.388Z,0.90
2017-12-02T01:30:54.745Z,0.90
2017-12-02T01:33:24.469Z,0.90
2017-12-02T01:35:53.341Z,0.90
2017-12-02T01:38:25.446Z,0.80
2017-12-02T01:40:54.377Z,0.80
2017-12-02T01:43:25.859Z,0.80
2017-12-02T01:45:55.559Z,0.70
2017-12-02T01:48:25.355Z,0.80
2017-12-02T01:50:54.504Z,0.80
2017-12-02T01:53:23.620Z,0.80
2017-12-02T01:55:52.525Z,0.80
2017-12-02T01:58:21.481Z,0.90
2017-12-02T02:00:52.719Z,0.90
2017-12-02T02:03:23.621Z,1.00
2017-12-02T02:05:53.274Z,0.90
2017-12-02T02:08:22.239Z,0.90
2017-12-02T02:10:51.948Z,0.90
2017-12-02T02:13:23.353Z,0.90
2017-12-02T02:15:52.347Z,0.80
2017-12-02T02:18:22.807Z,0.90
2017-12-02T02:20:52.730Z,0.90
2017-12-02T02:23:22.602Z,0.90
2017-12-02T02:25:52.641Z,0.90
2017-12-02T02:28:23.651Z,1.00
2017-12-02T02:30:52.784Z,1.00
2017-12-02T02:33:23.940Z,1.00
2017-12-02T02:35:54.048Z,1.00
2017-12-02T02:38:25.841Z,1.00
2017-12-02T02:40:54.830Z,0.90
2017-12-02T02:43:24.696Z,1.00
2017-12-02T02:45:54.353Z,1.00
2017-12-02T02:48:23.402Z,0.90
2017-12-02T02:50:52.583Z,1.00
2017-12-02T02:53:21.568Z,1.00
2017-12-02T02:55:50.540Z,1.00
2017-12-02T02:58:19.749Z,1.00
2017-12-02T03:00:48.769Z,1.00
2017-12-02T03:03:17.802Z,1.00
2017-12-02T03:05:46.819Z,1.00
2017-12-02T03:08:15.779Z,1.00
2017-12-02T03:10:45.659Z,1.00
2017-12-02T03:13:14.810Z,1.00
2017-12-02T03:15:44.306Z,1.10
2017-12-02T03:18:13.997Z,1.10
2017-12-02T03:20:44.846Z,1.10
2017-12-02T03:23:13.889Z,1.00
2017-12-02T03:25:42.939Z,1.10
2017-12-02T03:28:12.312Z,1.10
2017-12-02T03:30:41.448Z,1.10
2017-12-02T03:33:11.192Z,1.10
2017-12-02T03:35:40.232Z,1.10
2017-12-02T03:38:10.113Z,1.00
2017-12-02T03:40:39.302Z,1.00
2017-12-02T03:43:08.372Z,1.00
2017-12-02T03:45:37.511Z,1.00
2017-12-02T03:48:07.388Z,1.00
2017-12-02T03:50:36.455Z,1.00
2017-12-02T03:53:05.445Z,1.00
2017-12-02T03:55:34.505Z,1.00
2017-12-02T03:58:04.360Z,1.00
2017-12-02T04:00:34.526Z,1.10
2017-12-02T04:03:03.664Z,1.00
2017-12-02T04:05:33.079Z,1.10
2017-12-02T04:08:02.192Z,1.10
2017-12-02T04:10:31.290Z,1.10
2017-12-02T04:13:00.374Z,1.10
2017-12-02T04:15:31.061Z,1.00
2017-12-02T04:18:00.869Z,1.00
2017-12-02T04:20:30.363Z,1.00
2017-12-02T04:22:59.333Z,1.00
2017-12-02T04:25:28.376Z,1.00
2017-12-02T04:27:57.829Z,0.90
2017-12-02T04:30:26.943Z,0.90
2017-12-02T04:32:56.054Z,1.00
2017-12-02T04:35:25.989Z,1.00
2017-12-02T04:37:55.833Z,1.00
2017-12-02T04:40:26.338Z,1.00
2017-12-02T04:42:55.271Z,1.00
2017-12-02T04:45:25.750Z,1.00
2017-12-02T04:47:55.438Z,1.00
2017-12-02T04:50:24.531Z,1.00
2017-12-02T04:52:54.331Z,1.00
2017-12-02T04:55:25.375Z,1.00
2017-12-02T04:57:54.541Z,1.00
2017-12-02T05:00:24.385Z,1.10
2017-12-02T05:02:53.418Z,1.00
2017-12-02T05:05:24.956Z,1.10
2017-12-02T05:07:54.681Z,1.10
2017-12-02T05:10:24.777Z,1.10
2017-12-02T05:12:54.545Z,1.10
2017-12-02T05:15:23.558Z,1.10
2017-12-02T05:17:52.533Z,1.10
2017-12-02T05:20:21.650Z,1.10
2017-12-02T05:22:50.575Z,1.10
2017-12-02T05:25:23.019Z,1.10
2017-12-02T05:27:52.038Z,1.00
2017-12-02T05:30:21.200Z,1.10
2017-12-02T05:32:50.202Z,1.10
2017-12-02T05:35:19.299Z,1.10
2017-12-02T05:37:48.444Z,1.10
2017-12-02T05:40:17.710Z,1.10
2017-12-02T05:42:47.472Z,1.10
2017-12-02T05:45:16.565Z,1.10
2017-12-02T05:47:45.576Z,1.10
2017-12-02T05:50:14.693Z,1.10
2017-12-02T05:52:43.779Z,1.10
2017-12-02T05:55:12.920Z,1.00
2017-12-02T05:57:41.864Z,1.00
2017-12-02T06:00:13.802Z,1.00
2017-12-02T06:02:42.874Z,1.00
2017-12-02T06:05:13.315Z,1.00
2017-12-02T06:07:42.328Z,0.90
2017-12-02T06:10:12.060Z,0.90
2017-12-02T06:12:41.840Z,0.90
2017-12-02T06:15:11.914Z,0.90
2017-12-02T06:17:40.864Z,0.90
2017-12-02T06:20:11.307Z,0.90
2017-12-02T06:22:40.817Z,0.90
2017-12-02T06:25:11.390Z,0.90
2017-12-02T06:27:43.183Z,0.90
2017-12-02T06:30:15.106Z,0.90
2017-12-02T06:32:44.126Z,0.90
2017-12-02T06:35:15.856Z,0.90
2017-12-02T06:37:44.883Z,0.90
2017-12-02T06:40:15.296Z,1.00
2017-12-02T06:42:45.077Z,1.00
2017-12-02T06:45:14.913Z,1.00
2017-12-02T06:47:44.730Z,1.10
2017-12-02T06:50:14.088Z,1.00
2017-12-02T06:52:43.880Z,1.10
2017-12-02T06:55:14.757Z,1.10
2017-12-02T06:57:43.784Z,1.00
2017-12-02T07:00:17.618Z,1.00
2017-12-02T07:02:47.408Z,1.10
2017-12-02T07:05:16.688Z,1.00
2017-12-02T07:07:45.627Z,1.10
2017-12-02T07:10:16.273Z,1.10
2017-12-02T07:12:46.072Z,1.10
2017-12-02T07:15:15.728Z,1.00
2017-12-02T07:17:44.794Z,1.10
2017-12-02T07:20:14.104Z,1.10
2017-12-02T07:22:43.321Z,1.10
2017-12-02T07:25:13.367Z,1.10
2017-12-02T07:27:43.190Z,1.10
2017-12-02T07:30:15.410Z,1.10
2017-12-02T07:32:44.484Z,1.10
2017-12-02T07:35:15.504Z,1.00
2017-12-02T07:37:46.193Z,1.00
2017-12-02T07:40:16.228Z,1.00
2017-12-02T07:42:46.232Z,1.00
2017-12-02T07:45:18.217Z,1.00
2017-12-02T07:47:47.200Z,1.00
2017-12-02T07:50:17.219Z,1.00
2017-12-02T07:52:46.321Z,1.10
2017-12-02T07:55:17.761Z,1.10
2017-12-02T07:57:46.827Z,1.10
2017-12-02T08:00:20.281Z,1.20
2017-12-02T08:02:50.245Z,1.20
2017-12-02T08:05:20.367Z,1.30
2017-12-02T08:07:49.364Z,1.20
2017-12-02T08:10:19.188Z,1.30
2017-12-02T08:12:48.250Z,1.30
2017-12-02T08:15:18.624Z,1.40
2017-12-02T08:17:47.594Z,1.30
2017-12-02T08:20:17.666Z,1.40
2017-12-02T08:22:47.485Z,1.50
2017-12-02T08:25:18.306Z,1.50
2017-12-02T08:27:48.073Z,1.50
2017-12-02T08:30:17.860Z,1.50
2017-12-02T08:32:47.181Z,1.50
2017-12-02T08:35:16.902Z,1.60
2017-12-02T08:37:47.132Z,1.60
2017-12-02T08:40:18.994Z,1.60
2017-12-02T08:42:48.776Z,1.60
2017-12-02T08:45:18.842Z,1.50
2017-12-02T08:47:48.582Z,1.60
2017-12-02T08:50:17.825Z,1.60
2017-12-02T08:52:46.923Z,1.70
2017-12-02T08:55:16.890Z,1.70
2017-12-02T08:57:45.932Z,1.70
2017-12-02T09:00:19.261Z,1.80
2017-12-02T09:02:49.130Z,1.90
2017-12-02T09:05:19.364Z,1.80
2017-12-02T09:07:48.797Z,1.90
2017-12-02T09:10:19.680Z,1.90
2017-12-02T09:12:48.821Z,1.90
2017-12-02T09:15:18.788Z,1.90
2017-12-02T09:17:47.849Z,1.90
2017-12-02T09:20:18.400Z,2.00
2017-12-02T09:22:47.382Z,1.90
2017-12-02T09:25:17.341Z,2.10
2017-12-02T09:27:48.484Z,2.10
2017-12-02T09:30:23.762Z,2.20
2017-12-02T09:32:55.259Z,2.40
2017-12-02T09:35:26.358Z,2.30
2017-12-02T09:37:57.072Z,2.60
2017-12-02T09:40:26.361Z,2.50
2017-12-02T09:42:55.446Z,2.60
2017-12-02T09:45:25.334Z,2.70
2017-12-02T09:47:54.472Z,2.60
2017-12-02T09:50:24.504Z,2.70
2017-12-02T09:52:54.518Z,2.80
2017-12-02T09:55:24.810Z,2.80
2017-12-02T09:57:54.913Z,2.80
2017-12-02T10:00:26.129Z,2.60
2017-12-02T10:02:55.344Z,2.50
2017-12-02T10:05:25.660Z,2.70
2017-12-02T10:07:54.766Z,2.60
2017-12-02T10:10:24.964Z,2.80
2017-12-02T10:12:54.064Z,2.70
2017-12-02T10:15:23.343Z,2.80
2017-12-02T10:17:53.182Z,2.70
2017-12-02T10:20:23.208Z,2.60
2017-12-02T10:22:52.400Z,2.60
2017-12-02T10:25:26.706Z,2.50
2017-12-02T10:27:56.752Z,2.50
2017-12-02T10:30:27.558Z,2.60
2017-12-02T10:32:57.120Z,2.50
2017-12-02T10:35:28.633Z,2.50
2017-12-02T10:37:58.882Z,2.60
2017-12-02T10:40:43.448Z,2.50
2017-12-02T10:43:15.466Z,2.40
2017-12-02T10:45:44.943Z,2.40
2017-12-02T10:48:15.220Z,2.30
2017-12-02T10:50:46.759Z,2.30
2017-12-02T10:53:17.928Z,2.30
2017-12-02T10:55:47.361Z,2.30
2017-12-02T10:58:18.920Z,2.20
2017-12-02T11:00:59.258Z,2.10
2017-12-02T11:03:34.474Z,2.10
2017-12-02T11:06:09.739Z,2.10
2017-12-02T11:08:44.245Z,2.10
2017-12-02T11:11:16.125Z,2.00
2017-12-02T11:13:45.257Z,2.10
2017-12-02T11:16:25.660Z,2.10
2017-12-02T11:18:54.702Z,2.00
2017-12-02T11:21:31.767Z,1.90
2017-12-02T11:24:01.092Z,1.90
2017-12-02T11:26:31.371Z,2.00
2017-12-02T11:29:02.009Z,2.20
2017-12-02T11:31:34.435Z,2.20
2017-12-02T11:34:04.602Z,2.20
2017-12-02T11:36:33.859Z,2.30
2017-12-02T11:39:06.672Z,2.30
2017-12-02T11:41:36.546Z,2.30
2017-12-02T11:44:07.565Z,2.30
2017-12-02T11:46:37.505Z,2.20
2017-12-02T11:49:07.867Z,2.20
2017-12-02T11:51:36.939Z,2.20
2017-12-02T11:54:10.519Z,2.10
2017-12-02T11:56:40.749Z,2.00
2017-12-02T11:59:11.628Z,1.90
2017-12-02T12:01:41.693Z,1.80
2017-12-02T12:04:11.249Z,1.90
2017-12-02T12:06:40.854Z,1.90
2017-12-02T12:09:10.113Z,1.90
2017-12-02T12:11:39.510Z,1.90
2017-12-02T12:14:11.234Z,1.90
2017-12-02T12:16:40.427Z,1.80
2017-12-02T12:19:11.099Z,1.90
2017-12-02T12:21:40.323Z,1.90
2017-12-02T12:24:09.515Z,2.00
2017-12-02T12:26:38.647Z,2.00
2017-12-02T12:29:09.399Z,2.00
2017-12-02T12:31:40.003Z,2.00
2017-12-02T12:34:11.323Z,2.10
2017-12-02T12:36:41.079Z,2.10
2017-12-02T12:39:11.737Z,2.10
2017-12-02T12:41:43.687Z,2.10
2017-12-02T12:44:13.777Z,2.10
2017-12-02T12:46:43.503Z,2.10
2017-12-02T12:49:12.993Z,2.00
2017-12-02T12:51:44.435Z,2.00
2017-12-02T12:54:14.002Z,1.90
2017-12-02T12:56:43.771Z,1.90
2017-12-02T12:59:29.978Z,1.90
2017-12-02T13:01:59.484Z,1.90
2017-12-02T13:04:31.392Z,2.00
2017-12-02T13:07:00.542Z,1.90
2017-12-02T13:09:32.104Z,1.80
2017-12-02T13:12:01.382Z,1.70
2017-12-02T13:14:32.656Z,1.70
2017-12-02T13:17:03.515Z,1.70
2017-12-02T13:19:35.325Z,1.70
2017-12-02T13:22:11.843Z,1.70
2017-12-02T13:24:42.953Z,1.70
2017-12-02T13:27:17.694Z,2.00
2017-12-02T13:29:47.455Z,1.90
2017-12-02T13:32:19.241Z,2.10
2017-12-02T13:34:49.139Z,2.20
2017-12-02T13:37:20.065Z,2.30
2017-12-02T13:39:50.305Z,2.30
2017-12-02T13:42:19.519Z,2.30
2017-12-02T13:44:48.893Z,2.40
2017-12-02T13:47:19.040Z,2.50
2017-12-02T13:49:48.102Z,2.40
2017-12-02T13:52:17.415Z,2.50
2017-12-02T13:54:48.308Z,2.20
2017-12-02T13:57:17.483Z,2.20
2017-12-02T13:59:47.282Z,2.10
2017-12-02T14:02:17.342Z,2.00
2017-12-02T14:04:46.839Z,2.00
2017-12-02T14:07:18.774Z,2.00
2017-12-02T14:09:48.830Z,1.90
2017-12-02T14:12:20.047Z,1.90
2017-12-02T14:14:49.465Z,1.80
2017-12-02T14:17:18.489Z,1.80
2017-12-02T14:19:47.791Z,1.80
2017-12-02T14:22:16.976Z,1.80
2017-12-02T14:24:46.089Z,1.70
2017-12-02T14:27:16.052Z,1.60
2017-12-02T14:29:45.171Z,1.50
2017-12-02T14:32:15.170Z,1.30
2017-12-02T14:34:45.224Z,1.20
2017-12-02T14:37:14.461Z,1.20
2017-12-02T14:39:45.130Z,1.10
2017-12-02T14:42:14.418Z,1.00
2017-12-02T14:44:45.162Z,1.10
2017-12-02T14:47:16.277Z,1.00
2017-12-02T14:49:46.856Z,1.00
2017-12-02T14:52:16.166Z,1.00
2017-12-02T14:54:45.937Z,1.10
2017-12-02T14:57:15.875Z,1.10
2017-12-02T14:59:46.032Z,1.10
2017-12-02T15:02:15.074Z,1.10
2017-12-02T15:04:45.024Z,1.10
2017-12-02T15:07:14.097Z,1.00
2017-12-02T15:09:43.137Z,1.10
2017-12-02T15:12:13.053Z,1.00
2017-12-02T15:14:42.940Z,1.00
2017-12-02T15:17:12.370Z,1.00
2017-12-02T15:19:44.200Z,1.00
2017-12-02T15:22:15.300Z,1.00
2017-12-02T15:24:45.254Z,1.00
2017-12-02T15:27:31.418Z,1.00
2017-12-02T15:30:01.580Z,0.90
2017-12-02T15:32:31.613Z,0.90
2017-12-02T15:37:36.732Z,0.80
2017-12-02T15:40:16.378Z,0.80
2017-12-02T15:42:45.563Z,0.80
2017-12-02T15:45:21.709Z,0.70
2017-12-02T15:47:52.751Z,0.70
2017-12-02T15:50:24.802Z,0.60
2017-12-02T15:52:53.809Z,0.60
2017-12-02T15:55:24.077Z,0.70
2017-12-02T15:57:54.606Z,0.60
2017-12-02T16:00:30.114Z,0.70
2017-12-02T16:02:59.199Z,0.70
2017-12-02T16:05:28.344Z,0.70
2017-12-02T16:07:57.437Z,0.70
2017-12-02T16:10:27.491Z,0.70
2017-12-02T16:12:57.036Z,0.70
2017-12-02T16:15:29.977Z,0.70
2017-12-02T16:18:00.090Z,0.90
2017-12-02T16:20:31.208Z,0.90
2017-12-02T16:23:00.386Z,0.80
2017-12-02T16:25:30.499Z,0.80
2017-12-02T16:28:01.836Z,0.80
2017-12-02T16:30:32.851Z,0.70
2017-12-02T16:33:03.907Z,0.80
2017-12-02T16:35:36.072Z,0.90
2017-12-02T16:38:06.722Z,0.80
2017-12-02T16:40:36.871Z,0.90
2017-12-02T16:43:10.731Z,0.80
2017-12-02T16:45:40.015Z,0.80
2017-12-02T16:50:51.614Z,0.80
2017-12-02T16:53:23.343Z,0.80
2017-12-02T16:55:54.640Z,0.80
2017-12-02T16:58:23.939Z,0.80
2017-12-02T17:00:54.711Z,0.90
2017-12-02T17:03:24.780Z,0.90
2017-12-02T17:05:55.130Z,1.00
2017-12-02T17:08:25.436Z,1.00
2017-12-02T17:10:56.046Z,1.00
2017-12-02T17:16:59.563Z,1.00
2017-12-02T17:19:30.710Z,0.90
2017-12-02T17:22:15.916Z,0.90
2017-12-02T17:24:47.209Z,0.90
2017-12-02T17:27:24.660Z,0.90
2017-12-02T17:29:56.393Z,0.90
2017-12-02T17:35:18.687Z,0.90
2017-12-02T17:37:49.842Z,0.90
2017-12-02T17:40:26.604Z,0.80
2017-12-02T17:42:55.827Z,0.80
2017-12-02T17:45:25.140Z,0.80
2017-12-02T17:47:54.952Z,0.80
2017-12-02T17:50:30.784Z,0.80
2017-12-02T17:52:59.837Z,0.70
2017-12-02T17:55:29.725Z,0.80
2017-12-02T17:58:06.298Z,0.80
2017-12-02T18:00:36.720Z,0.70
2017-12-02T18:03:08.247Z,1.00
2017-12-02T18:05:38.707Z,1.00
2017-12-02T18:08:08.781Z,0.90
2017-12-02T18:10:38.049Z,0.90
2017-12-02T18:13:08.642Z,0.90
2017-12-02T18:15:39.468Z,0.70
2017-12-02T18:18:14.000Z,0.70
2017-12-02T18:20:44.685Z,0.60
2017-12-02T18:23:13.808Z,0.60
2017-12-02T18:25:44.713Z,0.60
2017-12-02T18:28:14.849Z,0.60
2017-12-02T18:30:44.042Z,0.60
2017-12-02T18:33:13.997Z,0.60
2017-12-02T18:35:43.829Z,0.70
2017-12-02T18:38:12.942Z,0.60
2017-12-02T18:40:42.051Z,0.70
2017-12-02T18:43:11.219Z,0.70
2017-12-02T18:45:41.111Z,0.70
2017-12-02T18:48:10.081Z,0.70
2017-12-02T18:50:39.310Z,0.60
2017-12-02T18:53:09.242Z,0.60
2017-12-02T18:55:40.568Z,0.60
2017-12-02T18:58:11.053Z,0.90
2017-12-02T19:00:42.496Z,0.80
2017-12-02T19:03:11.624Z,0.80
2017-12-02T19:05:40.778Z,0.70
2017-12-02T19:08:11.405Z,0.60
2017-12-02T19:10:41.662Z,0.60
2017-12-02T19:13:10.968Z,0.60
2017-12-02T19:15:40.996Z,0.50
2017-12-02T19:18:10.170Z,0.60
2017-12-02T19:20:39.434Z,0.60
2017-12-02T19:23:08.530Z,0.60
2017-12-02T19:28:21.333Z,0.60
2017-12-02T19:30:50.820Z,0.70
2017-12-02T19:33:19.877Z,0.60
2017-12-02T19:35:52.518Z,0.60
2017-12-02T19:38:22.347Z,0.60
2017-12-02T19:40:54.547Z,0.60
2017-12-02T19:43:26.653Z,0.60
2017-12-02T19:45:58.552Z,0.50
2017-12-02T19:48:27.597Z,0.40
2017-12-02T19:51:01.914Z,0.40
2017-12-02T19:53:44.512Z,0.40
2017-12-02T19:56:13.519Z,0.40
2017-12-02T19:58:42.784Z,0.40
2017-12-02T20:01:12.077Z,0.40
2017-12-02T20:03:42.069Z,0.40
2017-12-02T20:06:11.822Z,0.40
2017-12-02T20:08:40.884Z,0.40
2017-12-02T20:11:10.781Z,0.60
2017-12-02T20:13:41.551Z,0.50
2017-12-02T20:16:11.820Z,0.50
2017-12-02T20:18:41.697Z,0.30
2017-12-02T20:21:10.834Z,0.30
2017-12-02T20:23:41.731Z,0.20
2017-12-02T20:26:10.792Z,0.10
2017-12-02T20:28:39.897Z,0.00
2017-12-02T20:31:09.634Z,0.00
2017-12-02T20:33:39.048Z,0.00
2017-12-02T20:36:08.138Z,0.00
2017-12-02T20:38:37.216Z,-0.10
2017-12-02T20:41:07.964Z,-0.10
2017-12-02T20:43:37.730Z,-0.10
2017-12-02T20:46:07.022Z,-0.20
2017-12-02T20:48:36.932Z,-0.20
2017-12-02T20:51:07.046Z,-0.10
2017-12-02T20:53:36.145Z,-0.10
2017-12-02T20:56:08.222Z,0.00
2017-12-02T20:58:38.160Z,0.00
2017-12-02T21:01:10.825Z,0.00
2017-12-02T21:03:39.938Z,0.00
2017-12-02T21:06:09.447Z,0.00
2017-12-02T21:08:38.465Z,0.10
2017-12-02T21:11:09.351Z,0.10
2017-12-02T21:13:39.343Z,0.10
2017-12-02T21:16:08.545Z,0.10
2017-12-02T21:18:38.374Z,0.00
2017-12-02T21:21:08.915Z,0.00
2017-12-02T21:23:38.090Z,0.00
2017-12-02T21:26:09.245Z,0.10
2017-12-02T21:28:38.668Z,0.00
2017-12-02T21:31:08.115Z,0.00
2017-12-02T21:33:37.676Z,0.00
2017-12-02T21:36:08.322Z,-0.10
2017-12-02T21:38:37.467Z,-0.10
2017-12-02T21:41:07.541Z,-0.20
2017-12-02T21:43:38.084Z,-0.20
2017-12-02T21:46:07.571Z,-0.30
2017-12-02T21:48:36.881Z,-0.20
2017-12-02T21:51:06.757Z,-0.30
2017-12-02T21:53:35.739Z,-0.30
2017-12-02T21:56:06.005Z,-0.40
2017-12-02T21:58:35.033Z,-0.50
2017-12-02T22:01:09.944Z,-0.30
2017-12-02T22:03:39.120Z,-0.30
2017-12-02T22:06:09.103Z,-0.20
2017-12-02T22:08:38.162Z,-0.10
2017-12-02T22:11:07.517Z,-0.10
2017-12-02T22:13:36.598Z,-0.10
2017-12-02T22:16:05.789Z,-0.20
2017-12-02T22:18:35.973Z,-0.20
2017-12-02T22:21:06.773Z,-0.30
2017-12-02T22:23:35.792Z,-0.30
2017-12-02T22:26:07.223Z,-0.30
2017-12-02T22:28:36.312Z,-0.40
2017-12-02T22:31:08.924Z,-0.50
2017-12-02T22:33:37.908Z,-0.40
2017-12-02T22:36:07.801Z,-0.50
2017-12-02T22:38:37.807Z,-0.50
2017-12-02T22:41:09.416Z,-0.60
2017-12-02T22:43:38.800Z,-0.50
2017-12-02T22:46:08.953Z,-0.60
2017-12-02T22:48:38.905Z,-0.60
2017-12-02T22:51:11.154Z,-0.50
2017-12-02T22:53:40.241Z,-0.60
2017-12-02T22:56:11.578Z,-0.50
2017-12-02T22:58:41.503Z,-0.50
2017-12-02T23:01:16.256Z,-0.60
2017-12-02T23:03:45.681Z,-0.50
2017-12-02T23:06:17.283Z,-0.50
2017-12-02T23:08:47.278Z,-0.60
2017-12-02T23:11:17.225Z,-0.60
2017-12-02T23:13:46.250Z,-0.60
2017-12-02T23:16:15.260Z,-0.60
2017-12-02T23:18:55.221Z,-0.60
2017-12-02T23:21:25.449Z,-0.50
2017-12-02T23:23:55.235Z,-0.50
2017-12-02T23:26:26.575Z,-0.50
2017-12-02T23:29:02.155Z,-0.60
2017-12-02T23:31:36.244Z,-0.60
2017-12-02T23:34:06.827Z,-0.50
2017-12-02T23:36:36.690Z,-0.50
2017-12-02T23:39:06.470Z,-0.50
2017-12-02T23:41:35.482Z,-0.60
2017-12-02T23:44:05.438Z,-0.50
2017-12-02T23:46:35.196Z,-0.50
2017-12-02T23:49:04.427Z,-0.60
2017-12-02T23:51:33.493Z,-0.50
2017-12-02T23:54:02.857Z,-0.60
2017-12-02T23:56:32.670Z,-0.60
2017-12-02T23:59:02.458Z,-0.60
